Time;durP1;ratioP1;P1;durP2;ratioP2;P2;SDS_P1;SDS_P2;PMS_P1;PMS_P2;Temp;Humidity;BMP_temperature;BMP_pressure;BME280_temperature;BME280_humidity;BME280_pressure;Samples;Min_cycle;Max_cycle;Signal;HPM_P1;HPM_P2
2020/12/10 00:00:07;;;;;;;15.43;9.65;;;4.50;63.30;;;;;;2078986;28;20029;-76
2020/12/10 00:01:11;;;;;;;15.18;10.48;;;4.40;63.20;;;;;;2069796;28;20038;-77
2020/12/10 00:02:13;;;;;;;15.77;10.73;;;4.40;63.30;;;;;;2075077;28;20045;-77
2020/12/10 00:03:13;;;;;;;15.98;10.70;;;4.40;63.40;;;;;;2083568;28;20087;-76
2020/12/10 00:04:14;;;;;;;16.60;10.20;;;4.40;63.50;;;;;;2085253;28;20143;-77
2020/12/10 00:05:15;;;;;;;15.18;9.88;;;4.40;63.60;;;;;;2084655;28;20372;-77
2020/12/10 00:06:18;;;;;;;15.20;10.02;;;4.40;63.70;;;;;;2083339;28;20302;-77
2020/12/10 00:07:22;;;;;;;17.08;11.07;;;4.40;63.70;;;;;;2084941;28;20090;-77
2020/12/10 00:08:22;;;;;;;17.75;10.77;;;4.40;63.70;;;;;;2084861;28;20179;-77
2020/12/10 00:09:23;;;;;;;15.30;10.05;;;4.40;63.70;;;;;;2084648;28;20310;-77
2020/12/10 00:10:24;;;;;;;16.98;11.10;;;4.40;63.70;;;;;;2084871;28;20028;-77
2020/12/10 00:11:24;;;;;;;17.88;10.68;;;4.40;63.80;;;;;;2075701;28;20030;-77
2020/12/10 00:12:25;;;;;;;14.85;9.65;;;4.40;63.80;;;;;;2068375;28;20029;-75
2020/12/10 00:13:25;;;;;;;16.10;10.65;;;4.50;63.90;;;;;;2076279;28;20056;-75
2020/12/10 00:14:26;;;;;;;17.50;10.82;;;4.40;63.80;;;;;;2084691;28;20021;-75
2020/12/10 00:15:26;;;;;;;15.85;10.55;;;4.50;63.90;;;;;;2084414;28;20044;-76
2020/12/10 00:16:27;;;;;;;16.35;10.02;;;4.50;63.80;;;;;;2084095;28;20351;-77
2020/12/10 00:17:28;;;;;;;14.50;10.38;;;4.50;63.90;;;;;;2085175;28;20060;-77
2020/12/10 00:18:29;;;;;;;14.80;10.10;;;4.50;63.90;;;;;;2075519;28;20033;-77
2020/12/10 00:19:29;;;;;;;17.85;10.68;;;4.50;63.80;;;;;;2075943;28;20041;-74
2020/12/10 00:20:30;;;;;;;14.55;10.15;;;4.50;63.80;;;;;;2076598;28;20630;-76
2020/12/10 00:21:30;;;;;;;19.70;10.88;;;4.50;63.80;;;;;;2075966;28;20559;-77
2020/12/10 00:22:33;;;;;;;18.58;10.40;;;4.50;63.80;;;;;;2084361;28;20502;-76
2020/12/10 00:23:34;;;;;;;13.60;9.73;;;4.50;63.90;;;;;;2084094;28;20066;-78
2020/12/10 00:24:35;;;;;;;15.80;9.25;;;4.50;63.80;;;;;;2078596;28;20029;-77
2020/12/10 00:25:35;;;;;;;15.75;10.52;;;4.50;63.80;;;;;;2070485;28;20034;-77
2020/12/10 00:26:36;;;;;;;16.30;10.00;;;4.50;63.80;;;;;;2076386;28;20040;-77
2020/12/10 00:27:37;;;;;;;15.48;10.23;;;4.50;63.80;;;;;;2084600;28;20147;-77
2020/12/10 00:28:38;;;;;;;15.02;10.30;;;4.50;63.80;;;;;;2084105;28;20032;-76
2020/12/10 00:29:39;;;;;;;14.45;9.95;;;4.50;63.90;;;;;;2083880;28;20478;-77
2020/12/10 00:30:39;;;;;;;17.33;10.95;;;4.50;63.90;;;;;;2084389;28;20025;-77
2020/12/10 00:31:40;;;;;;;15.45;10.52;;;4.50;63.90;;;;;;2084385;28;20037;-77
2020/12/10 00:32:40;;;;;;;16.13;9.88;;;4.50;63.90;;;;;;2084075;28;20041;-77
2020/12/10 00:33:41;;;;;;;16.42;10.68;;;4.50;63.90;;;;;;2084427;28;20075;-77
2020/12/10 00:34:43;;;;;;;13.45;10.10;;;4.50;63.80;;;;;;2084262;28;20356;-77
2020/12/10 00:35:43;;;;;;;14.30;9.57;;;4.50;63.90;;;;;;2085195;28;20463;-76
2020/12/10 00:36:44;;;;;;;16.15;10.40;;;4.50;63.90;;;;;;2084505;28;20106;-77
2020/12/10 00:37:44;;;;;;;12.73;9.38;;;4.50;63.80;;;;;;2083872;28;20271;-76
2020/12/10 00:38:45;;;;;;;13.90;10.23;;;4.50;63.80;;;;;;2076209;28;20423;-77
2020/12/10 00:39:45;;;;;;;15.35;10.82;;;4.50;63.90;;;;;;2075528;28;20030;-77
2020/12/10 00:40:46;;;;;;;16.10;10.40;;;4.50;63.80;;;;;;2084595;28;20033;-77
2020/12/10 00:41:52;;;;;;;16.00;10.63;;;4.50;63.90;;;;;;2085155;28;20034;-77
2020/12/10 00:42:53;;;;;;;13.55;9.45;;;4.50;63.80;;;;;;2075704;28;20055;-76
2020/12/10 00:43:54;;;;;;;17.05;10.52;;;4.50;63.80;;;;;;2071256;28;20029;-76
2020/12/10 00:44:54;;;;;;;15.68;9.55;;;4.50;63.70;;;;;;2075778;28;20030;-76
2020/12/10 00:45:55;;;;;;;15.73;9.40;;;4.50;63.70;;;;;;2083344;28;20057;-77
2020/12/10 00:46:56;;;;;;;13.70;9.40;;;4.50;63.60;;;;;;2083867;28;20030;-77
2020/12/10 00:47:56;;;;;;;15.43;9.95;;;4.50;63.70;;;;;;2076963;28;20022;-77
2020/12/10 00:48:57;;;;;;;12.60;9.40;;;4.50;63.70;;;;;;2075710;28;20191;-76
2020/12/10 00:49:57;;;;;;;15.43;9.95;;;4.50;63.70;;;;;;2085351;28;20039;-77
2020/12/10 00:50:59;;;;;;;13.70;9.68;;;4.50;63.70;;;;;;2086217;28;20427;-77
2020/12/10 00:52:00;;;;;;;13.38;9.50;;;4.50;63.70;;;;;;2085737;28;20026;-77
2020/12/10 00:53:00;;;;;;;15.43;10.02;;;4.50;63.70;;;;;;2085904;28;20025;-77
2020/12/10 00:54:01;;;;;;;15.35;10.20;;;4.50;63.70;;;;;;2086801;28;20021;-77
2020/12/10 00:55:02;;;;;;;14.30;9.55;;;4.50;63.70;;;;;;2085835;28;20047;-77
2020/12/10 00:56:02;;;;;;;15.13;9.30;;;4.50;63.80;;;;;;2086417;28;20345;-76
2020/12/10 00:57:06;;;;;;;15.05;10.13;;;4.50;63.80;;;;;;2086201;28;20029;-76
2020/12/10 00:58:07;;;;;;;13.00;9.00;;;4.50;63.90;;;;;;2085796;28;20037;-76
2020/12/10 00:59:08;;;;;;;15.18;8.90;;;4.50;63.80;;;;;;2085863;28;20025;-77
2020/12/10 01:00:11;;;;;;;13.45;9.35;;;4.50;63.80;;;;;;2085879;28;20433;-76
2020/12/10 01:01:12;;;;;;;14.13;9.52;;;4.40;63.70;;;;;;2086219;28;20025;-77
2020/12/10 01:02:12;;;;;;;14.35;9.32;;;4.50;63.90;;;;;;2086098;28;20021;-77
2020/12/10 01:03:13;;;;;;;16.33;9.55;;;4.40;63.70;;;;;;2077838;28;20455;-77
2020/12/10 01:04:14;;;;;;;13.95;9.30;;;4.40;63.70;;;;;;2077246;28;20472;-77
2020/12/10 01:05:14;;;;;;;16.40;10.48;;;4.50;63.90;;;;;;2087244;28;20032;-77
2020/12/10 01:06:15;;;;;;;13.38;9.70;;;4.40;63.80;;;;;;2086850;28;20112;-77
2020/12/10 01:07:15;;;;;;;15.57;9.70;;;4.40;63.80;;;;;;2078020;28;20077;-77
2020/12/10 01:08:16;;;;;;;13.63;9.77;;;4.40;63.80;;;;;;2078692;28;20025;-77
2020/12/10 01:09:16;;;;;;;14.57;10.57;;;4.40;63.80;;;;;;2084742;28;20033;-77
2020/12/10 01:10:17;;;;;;;14.95;10.20;;;4.50;63.90;;;;;;2069237;28;20592;-76
2020/12/10 01:11:25;;;;;;;15.07;10.35;;;4.40;63.70;;;;;;2062244;28;20054;-76
2020/12/10 01:12:26;;;;;;;13.20;9.40;;;4.40;63.80;;;;;;2078259;28;20525;-76
2020/12/10 01:13:26;;;;;;;15.95;10.52;;;4.40;63.80;;;;;;2086177;28;20470;-75
2020/12/10 01:14:27;;;;;;;15.40;10.73;;;4.40;63.70;;;;;;2085880;28;20403;-76
2020/12/10 01:15:28;;;;;;;18.83;12.02;;;4.40;63.70;;;;;;2077750;28;20414;-77
2020/12/10 01:16:28;;;;;;;17.60;12.25;;;4.40;63.70;;;;;;2077283;28;20030;-76
2020/12/10 01:17:29;;;;;;;17.52;12.10;;;4.40;63.60;;;;;;2085369;28;20029;-77
2020/12/10 01:18:29;;;;;;;18.73;12.35;;;4.40;63.70;;;;;;2086306;28;20122;-76
2020/12/10 01:19:30;;;;;;;20.48;12.73;;;4.40;63.70;;;;;;2086670;28;20113;-77
2020/12/10 01:20:30;;;;;;;18.80;11.60;;;4.40;63.70;;;;;;2090713;28;20022;-77
2020/12/10 01:21:33;;;;;;;19.23;11.73;;;4.40;63.60;;;;;;2091148;28;20220;-76
2020/12/10 01:22:33;;;;;;;18.05;11.88;;;4.40;63.70;;;;;;2089243;28;20037;-77
2020/12/10 01:23:34;;;;;;;17.35;11.95;;;4.40;63.70;;;;;;2090683;28;20025;-73
2020/12/10 01:24:34;;;;;;;18.35;12.25;;;4.40;63.70;;;;;;2078097;28;20026;-74
2020/12/10 01:25:35;;;;;;;20.77;12.63;;;4.40;63.60;;;;;;2077861;28;20033;-76
2020/12/10 01:26:35;;;;;;;19.15;12.50;;;4.40;63.60;;;;;;2077668;28;20248;-74
2020/12/10 01:27:36;;;;;;;18.67;11.38;;;4.30;63.60;;;;;;2080422;28;20037;-77
2020/12/10 01:28:37;;;;;;;19.90;12.90;;;4.30;63.60;;;;;;2081565;28;20068;-77
2020/12/10 01:29:37;;;;;;;18.23;11.77;;;4.30;63.60;;;;;;2073851;28;20050;-76
2020/12/10 01:30:38;;;;;;;19.70;13.15;;;4.30;63.60;;;;;;2082205;28;20044;-77
2020/12/10 01:31:38;;;;;;;19.77;12.07;;;4.30;63.60;;;;;;2088549;28;20025;-77
2020/12/10 01:32:39;;;;;;;21.73;13.68;;;4.30;63.60;;;;;;2090898;28;20566;-77
2020/12/10 01:33:40;;;;;;;18.13;12.48;;;4.30;63.60;;;;;;2087271;28;20025;-74
2020/12/10 01:34:40;;;;;;;22.40;13.50;;;4.30;63.60;;;;;;2076293;28;20029;-76
2020/12/10 01:35:41;;;;;;;19.35;12.70;;;4.30;63.60;;;;;;2068658;28;20361;-76
2020/12/10 01:36:41;;;;;;;19.95;12.40;;;4.30;63.60;;;;;;2076496;28;20365;-76
2020/12/10 01:37:42;;;;;;;19.75;13.32;;;4.20;63.60;;;;;;2083958;28;20632;-76
2020/12/10 01:38:42;;;;;;;19.48;12.90;;;4.20;63.60;;;;;;2083983;28;20065;-78
2020/12/10 01:39:43;;;;;;;19.20;13.27;;;4.20;63.60;;;;;;2079559;28;20033;-76
2020/12/10 01:40:51;;;;;;;22.17;13.00;;;4.20;63.60;;;;;;2079271;28;20206;-76
2020/12/10 01:41:51;;;;;;;20.48;13.50;;;4.20;63.60;;;;;;2085422;28;20025;-77
2020/12/10 01:42:52;;;;;;;19.75;12.88;;;4.20;63.60;;;;;;2084601;28;20356;-76
2020/12/10 01:44:02;;;;;;;22.55;13.48;;;4.20;63.60;;;;;;2084181;28;20501;-77
2020/12/10 01:45:04;;;;;;;20.65;13.30;;;4.20;63.70;;;;;;2084952;28;20026;-77
2020/12/10 01:46:04;;;;;;;17.38;12.32;;;4.20;63.70;;;;;;2085068;28;20036;-77
2020/12/10 01:47:06;;;;;;;21.02;13.32;;;4.20;63.70;;;;;;2076067;28;20030;-77
2020/12/10 01:48:07;;;;;;;19.30;12.95;;;4.20;63.80;;;;;;2076690;28;20047;-76
2020/12/10 01:49:09;;;;;;;19.23;13.13;;;4.10;63.70;;;;;;2085406;28;20032;-76
2020/12/10 01:50:09;;;;;;;20.08;12.68;;;4.20;63.80;;;;;;2084039;28;20037;-76
2020/12/10 01:51:11;;;;;;;20.10;12.50;;;4.10;63.80;;;;;;2085211;28;20156;-76
2020/12/10 01:52:12;;;;;;;18.83;12.77;;;4.10;63.90;;;;;;2084234;28;20026;-76
2020/12/10 01:53:12;;;;;;;19.55;12.85;;;4.10;64.60;;;;;;2084128;28;20043;-76
2020/12/10 01:54:13;;;;;;;18.63;12.73;;;4.10;63.90;;;;;;2085087;28;20065;-76
2020/12/10 01:55:13;;;;;;;19.05;13.15;;;4.10;63.90;;;;;;2084881;28;20029;-74
2020/12/10 01:56:16;;;;;;;21.23;13.40;;;4.10;63.90;;;;;;2084501;28;20170;-77
2020/12/10 01:57:16;;;;;;;19.42;12.80;;;4.10;64.00;;;;;;2084505;28;20052;-77
2020/12/10 01:58:17;;;;;;;20.38;12.80;;;4.10;63.90;;;;;;2085575;28;20029;-77
2020/12/10 01:59:18;;;;;;;18.45;12.18;;;4.10;64.00;;;;;;2083906;28;20033;-77
2020/12/10 02:00:19;;;;;;;19.40;12.63;;;4.10;64.00;;;;;;2084938;28;20084;-75
2020/12/10 02:01:20;;;;;;;20.80;13.18;;;4.10;64.00;;;;;;2082977;28;20177;-75
2020/12/10 02:02:20;;;;;;;18.23;11.90;;;4.10;64.10;;;;;;2084206;28;20363;-76
2020/12/10 02:03:21;;;;;;;21.17;12.93;;;4.00;64.00;;;;;;2084362;28;20021;-75
2020/12/10 02:04:30;;;;;;;16.42;11.35;;;4.00;64.00;;;;;;2071533;28;20018;-74
2020/12/10 02:05:30;;;;;;;19.10;12.63;;;4.00;64.10;;;;;;2073586;28;20505;-75
2020/12/10 02:06:31;;;;;;;16.00;11.43;;;4.00;64.00;;;;;;2085546;28;20368;-75
2020/12/10 02:07:32;;;;;;;21.25;12.43;;;4.00;64.10;;;;;;2084517;28;20107;-77
2020/12/10 02:08:33;;;;;;;18.17;12.63;;;4.00;64.10;;;;;;2074697;28;20061;-75
2020/12/10 02:09:33;;;;;;;17.60;12.05;;;4.00;64.20;;;;;;2076383;28;20426;-75
2020/12/10 02:10:34;;;;;;;19.45;13.00;;;4.00;64.20;;;;;;2085463;28;20030;-75
2020/12/10 02:11:35;;;;;;;18.85;12.32;;;4.00;64.20;;;;;;2085615;28;20030;-75
2020/12/10 02:12:39;;;;;;;17.85;11.85;;;4.00;64.20;;;;;;2079115;28;20041;-74
2020/12/10 02:13:39;;;;;;;15.25;10.57;;;4.00;64.20;;;;;;2078990;28;20033;-75
2020/12/10 02:14:40;;;;;;;17.92;12.05;;;4.00;64.30;;;;;;2085027;28;20116;-75
2020/12/10 02:15:47;;;;;;;21.52;12.82;;;4.00;64.30;;;;;;2084535;28;20530;-75
2020/12/10 02:16:54;;;;;;;17.85;11.98;;;4.00;64.40;;;;;;2075835;28;20041;-75
2020/12/10 02:17:55;;;;;;;19.02;12.27;;;4.00;64.40;;;;;;2076713;28;20091;-75
2020/12/10 02:18:56;;;;;;;17.55;12.55;;;4.00;64.30;;;;;;2083605;28;21286;-77
2020/12/10 02:19:56;;;;;;;19.00;12.35;;;4.00;64.30;;;;;;2084479;28;20038;-77
2020/12/10 02:20:57;;;;;;;18.13;11.07;;;4.00;64.40;;;;;;2078416;28;20371;-75
2020/12/10 02:21:58;;;;;;;17.60;11.70;;;4.00;64.40;;;;;;2078690;28;20049;-76
2020/12/10 02:23:01;;;;;;;16.95;11.73;;;4.00;64.30;;;;;;2079544;28;20566;-74
2020/12/10 02:24:02;;;;;;;18.55;12.07;;;4.00;64.40;;;;;;2080032;28;20769;-76
2020/12/10 02:25:03;;;;;;;19.30;12.60;;;4.00;64.40;;;;;;2084474;28;20029;-75
2020/12/10 02:26:03;;;;;;;17.85;12.57;;;4.00;64.40;;;;;;2085801;28;20028;-76
2020/12/10 02:27:04;;;;;;;18.77;11.95;;;4.00;64.40;;;;;;2084031;28;20431;-76
2020/12/10 02:28:10;;;;;;;19.00;12.60;;;3.90;64.40;;;;;;2085310;28;20355;-76
2020/12/10 02:29:11;;;;;;;19.95;12.63;;;4.00;64.50;;;;;;2083817;28;20032;-76
2020/12/10 02:30:12;;;;;;;15.68;12.05;;;3.90;64.40;;;;;;2084430;28;20111;-75
2020/12/10 02:31:12;;;;;;;17.48;11.75;;;4.00;64.50;;;;;;2083725;28;20029;-75
2020/12/10 02:32:13;;;;;;;16.90;12.02;;;3.90;64.40;;;;;;2084726;28;20053;-76
2020/12/10 02:33:14;;;;;;;19.70;13.07;;;3.90;64.40;;;;;;2084396;28;20028;-75
2020/12/10 02:34:15;;;;;;;18.48;12.80;;;3.90;64.40;;;;;;2083889;28;20514;-75
2020/12/10 02:35:15;;;;;;;19.80;12.95;;;4.00;64.50;;;;;;2084476;28;20035;-73
2020/12/10 02:36:16;;;;;;;19.58;12.60;;;3.90;64.40;;;;;;2084379;28;20030;-77
2020/12/10 02:37:17;;;;;;;18.08;12.43;;;3.90;64.50;;;;;;2074943;28;20034;-77
2020/12/10 02:38:17;;;;;;;17.95;11.95;;;3.90;64.50;;;;;;2068174;28;20108;-75
2020/12/10 02:39:18;;;;;;;18.52;12.35;;;3.90;64.50;;;;;;2076046;28;20037;-75
2020/12/10 02:40:18;;;;;;;18.85;12.50;;;3.90;64.60;;;;;;2084812;28;20029;-75
2020/12/10 02:41:19;;;;;;;20.17;13.40;;;3.90;64.60;;;;;;2084528;28;20076;-77
2020/12/10 02:42:22;;;;;;;19.10;12.75;;;3.90;64.60;;;;;;2075711;28;20032;-75
2020/12/10 02:43:22;;;;;;;18.35;12.90;;;3.90;64.70;;;;;;2063616;28;20069;-75
2020/12/10 02:44:23;;;;;;;18.30;12.85;;;3.90;64.70;;;;;;2074234;28;20316;-75
2020/12/10 02:45:24;;;;;;;18.98;13.07;;;3.90;64.70;;;;;;2077358;28;20593;-75
2020/12/10 02:46:24;;;;;;;17.33;12.13;;;3.90;64.70;;;;;;2083775;28;20059;-75
2020/12/10 02:47:25;;;;;;;18.33;12.15;;;3.90;64.70;;;;;;2084995;28;20021;-75
2020/12/10 02:48:25;;;;;;;19.67;12.68;;;3.90;64.70;;;;;;2085080;28;20444;-75
2020/12/10 02:49:26;;;;;;;22.58;13.43;;;3.90;64.80;;;;;;2084509;28;20117;-75
2020/12/10 02:50:26;;;;;;;20.40;13.35;;;3.90;64.80;;;;;;2075523;28;20026;-75
2020/12/10 02:51:27;;;;;;;18.15;13.30;;;3.90;64.80;;;;;;2067817;28;20025;-75
2020/12/10 02:52:28;;;;;;;22.00;12.80;;;3.90;64.80;;;;;;2076089;28;20567;-75
2020/12/10 02:53:29;;;;;;;18.10;12.63;;;3.90;64.80;;;;;;2075633;28;20033;-75
2020/12/10 02:54:29;;;;;;;19.35;13.23;;;3.90;64.80;;;;;;2071985;28;20030;-75
2020/12/10 02:55:30;;;;;;;24.98;14.07;;;3.90;64.80;;;;;;2084389;28;20071;-75
2020/12/10 02:56:30;;;;;;;19.27;13.35;;;3.90;64.80;;;;;;2084449;28;20029;-75
2020/12/10 02:57:31;;;;;;;17.70;12.10;;;3.90;64.80;;;;;;2084404;28;20411;-75
2020/12/10 02:58:31;;;;;;;18.33;12.73;;;3.90;64.80;;;;;;2082792;28;20459;-75
2020/12/10 02:59:32;;;;;;;21.52;14.10;;;3.90;64.80;;;;;;2082951;28;20029;-75
2020/12/10 03:00:32;;;;;;;21.58;14.00;;;3.90;64.80;;;;;;2085536;28;20021;-77
2020/12/10 03:01:35;;;;;;;18.70;13.75;;;3.90;65.50;;;;;;2082941;28;20076;-76
2020/12/10 03:02:36;;;;;;;21.98;14.10;;;3.90;64.80;;;;;;2079028;28;20021;-76
2020/12/10 03:03:37;;;;;;;22.35;15.00;;;3.90;64.80;;;;;;2079174;28;21460;-76
2020/12/10 03:04:37;;;;;;;19.83;13.38;;;3.90;64.80;;;;;;2084133;28;20039;-77
2020/12/10 03:05:38;;;;;;;19.48;13.88;;;3.90;64.80;;;;;;2084925;28;20547;-76
2020/12/10 03:06:39;;;;;;;21.48;14.68;;;3.80;64.80;;;;;;2075403;28;20449;-77
2020/12/10 03:07:39;;;;;;;19.08;13.88;;;3.90;64.90;;;;;;2074467;28;20029;-74
2020/12/10 03:08:40;;;;;;;22.70;14.75;;;3.90;64.90;;;;;;2084909;28;20060;-77
2020/12/10 03:09:44;;;;;;;21.05;14.00;;;3.80;64.90;;;;;;2084176;28;20392;-77
2020/12/10 03:10:44;;;;;;;21.90;14.02;;;3.90;65.00;;;;;;2083549;28;20025;-77
2020/12/10 03:11:45;;;;;;;20.88;13.82;;;3.90;64.90;;;;;;2084129;28;20458;-77
2020/12/10 03:12:45;;;;;;;24.45;15.98;;;3.90;65.00;;;;;;2084047;28;20146;-76
2020/12/10 03:13:46;;;;;;;26.92;16.40;;;3.90;65.00;;;;;;2073549;28;20388;-77
2020/12/10 03:14:47;;;;;;;23.88;15.20;;;3.90;65.00;;;;;;2066549;28;20464;-77
2020/12/10 03:15:47;;;;;;;25.45;15.88;;;3.90;65.00;;;;;;2074095;28;20275;-77
2020/12/10 03:16:48;;;;;;;23.67;15.63;;;3.80;65.00;;;;;;2083547;28;20166;-77
2020/12/10 03:17:49;;;;;;;24.48;16.27;;;3.80;65.00;;;;;;2075213;28;20388;-77
2020/12/10 03:18:50;;;;;;;25.50;15.82;;;3.90;65.00;;;;;;2065860;28;20046;-77
2020/12/10 03:19:50;;;;;;;22.30;15.48;;;3.90;65.00;;;;;;2074496;28;20036;-76
2020/12/10 03:20:54;;;;;;;25.70;15.88;;;3.80;64.90;;;;;;2084170;28;20582;-76
2020/12/10 03:21:55;;;;;;;23.40;14.85;;;3.80;65.00;;;;;;2083395;28;20033;-77
2020/12/10 03:22:55;;;;;;;23.20;15.48;;;3.80;65.00;;;;;;2082652;28;20047;-76
2020/12/10 03:23:56;;;;;;;23.02;15.13;;;3.80;64.90;;;;;;2084207;28;20024;-77
2020/12/10 03:24:56;;;;;;;21.95;15.00;;;3.80;65.00;;;;;;2084381;28;20036;-77
2020/12/10 03:25:57;;;;;;;25.30;15.00;;;3.80;65.00;;;;;;2083921;28;20029;-77
2020/12/10 03:26:57;;;;;;;23.38;15.63;;;3.80;65.00;;;;;;2084136;28;20070;-77
2020/12/10 03:27:58;;;;;;;23.88;14.90;;;3.80;65.00;;;;;;2083883;28;20036;-76
2020/12/10 03:28:59;;;;;;;23.80;15.75;;;3.80;65.00;;;;;;2074422;28;20065;-75
2020/12/10 03:30:00;;;;;;;22.33;14.38;;;3.80;65.00;;;;;;2074991;28;20049;-75
2020/12/10 03:31:00;;;;;;;20.52;13.70;;;3.80;65.00;;;;;;2074529;28;20644;-75
2020/12/10 03:32:03;;;;;;;21.90;14.90;;;3.80;65.10;;;;;;2070948;28;20030;-77
2020/12/10 03:33:03;;;;;;;24.95;15.02;;;3.80;65.10;;;;;;2075812;28;20029;-77
2020/12/10 03:34:04;;;;;;;23.63;15.68;;;3.80;65.10;;;;;;2083598;28;20124;-76
2020/12/10 03:35:05;;;;;;;21.77;14.80;;;3.80;65.10;;;;;;2084201;28;20033;-76
2020/12/10 03:36:06;;;;;;;23.10;15.38;;;3.80;65.10;;;;;;2078650;28;20029;-76
2020/12/10 03:37:06;;;;;;;21.27;14.50;;;3.80;65.10;;;;;;2077196;28;20625;-77
2020/12/10 03:38:07;;;;;;;25.13;15.80;;;3.80;65.20;;;;;;2083961;28;20056;-76
2020/12/10 03:39:07;;;;;;;23.45;15.35;;;3.80;65.20;;;;;;2083359;28;20033;-77
2020/12/10 03:40:08;;;;;;;24.33;14.75;;;3.80;65.20;;;;;;2084007;28;20044;-77
2020/12/10 03:41:10;;;;;;;23.75;15.32;;;3.80;65.20;;;;;;2083528;28;20524;-76
2020/12/10 03:42:11;;;;;;;21.75;14.05;;;3.80;65.20;;;;;;2082655;28;20024;-77
2020/12/10 03:43:11;;;;;;;24.15;15.80;;;3.80;65.20;;;;;;2080967;28;20079;-76
2020/12/10 03:44:12;;;;;;;18.52;13.25;;;3.80;65.20;;;;;;2081934;28;20040;-76
2020/12/10 03:45:13;;;;;;;22.50;13.88;;;3.80;65.20;;;;;;2083526;28;20077;-76
2020/12/10 03:46:13;;;;;;;21.13;14.23;;;3.80;65.10;;;;;;2083062;28;20029;-77
2020/12/10 03:47:14;;;;;;;21.27;14.20;;;3.80;65.20;;;;;;2075213;28;20040;-76
2020/12/10 03:48:14;;;;;;;23.80;14.60;;;3.80;65.20;;;;;;2068386;28;20061;-76
2020/12/10 03:49:15;;;;;;;22.30;15.60;;;3.80;65.20;;;;;;2073892;28;20279;-76
2020/12/10 03:50:15;;;;;;;23.95;14.98;;;3.80;65.20;;;;;;2083431;28;20477;-77
2020/12/10 03:51:16;;;;;;;22.30;14.73;;;3.80;65.20;;;;;;2084016;28;20037;-76
2020/12/10 03:52:17;;;;;;;22.52;15.05;;;3.70;65.10;;;;;;2083031;28;20107;-76
2020/12/10 03:53:17;;;;;;;22.15;14.73;;;3.80;65.20;;;;;;2083459;28;20325;-77
2020/12/10 03:54:18;;;;;;;23.92;15.50;;;3.80;65.20;;;;;;2083950;28;20399;-76
2020/12/10 03:55:19;;;;;;;20.35;14.02;;;3.70;65.10;;;;;;2084250;28;20017;-76
2020/12/10 03:56:19;;;;;;;21.27;14.35;;;3.70;65.10;;;;;;2083719;28;20028;-76
2020/12/10 03:57:20;;;;;;;21.75;14.75;;;3.70;65.10;;;;;;2074934;28;20026;-77
2020/12/10 03:58:20;;;;;;;24.23;15.70;;;3.80;65.20;;;;;;2074070;28;20469;-76
2020/12/10 03:59:21;;;;;;;21.65;14.60;;;3.70;65.20;;;;;;2083305;28;20375;-77
2020/12/10 04:00:22;;;;;;;23.00;15.32;;;3.70;65.20;;;;;;2083824;28;20466;-76
2020/12/10 04:01:22;;;;;;;22.13;14.38;;;3.70;65.20;;;;;;2082632;28;20113;-76
2020/12/10 04:02:23;;;;;;;21.83;14.65;;;3.70;65.20;;;;;;2083765;28;20460;-76
2020/12/10 04:03:23;;;;;;;22.02;14.30;;;3.70;65.30;;;;;;2083311;28;20112;-76
2020/12/10 04:04:24;;;;;;;20.70;14.70;;;3.70;65.30;;;;;;2084216;28;20037;-76
2020/12/10 04:05:26;;;;;;;25.20;15.88;;;3.70;65.30;;;;;;2084115;28;20470;-76
2020/12/10 04:06:26;;;;;;;23.55;15.60;;;3.70;65.30;;;;;;2084155;28;20470;-77
2020/12/10 04:07:27;;;;;;;22.38;15.07;;;3.70;65.30;;;;;;2082060;28;20343;-76
2020/12/10 04:08:27;;;;;;;22.65;14.70;;;3.70;65.30;;;;;;2074205;28;20065;-76
2020/12/10 04:09:28;;;;;;;23.48;15.88;;;3.70;65.30;;;;;;2068916;28;20022;-76
2020/12/10 04:10:28;;;;;;;21.40;14.48;;;3.70;65.30;;;;;;2076369;28;20025;-76
2020/12/10 04:11:29;;;;;;;23.33;15.48;;;3.70;65.30;;;;;;2078306;28;20029;-77
2020/12/10 04:12:29;;;;;;;22.75;15.30;;;3.70;65.30;;;;;;2083314;28;20043;-76
2020/12/10 04:13:30;;;;;;;24.98;15.93;;;3.70;65.30;;;;;;2083002;28;20110;-76
2020/12/10 04:14:31;;;;;;;23.05;15.75;;;3.70;65.30;;;;;;2075456;28;20068;-77
2020/12/10 04:15:31;;;;;;;24.55;15.35;;;3.70;65.40;;;;;;2074744;28;20034;-77
2020/12/10 04:16:32;;;;;;;22.50;14.77;;;3.70;65.40;;;;;;2082878;28;20033;-76
2020/12/10 04:17:32;;;;;;;22.83;15.20;;;3.70;65.40;;;;;;2083487;28;20033;-76
2020/12/10 04:18:38;;;;;;;25.30;16.42;;;3.70;65.40;;;;;;2083538;28;20190;-74
2020/12/10 04:19:39;;;;;;;22.23;15.25;;;3.70;66.20;;;;;;2084439;28;20033;-76
2020/12/10 04:20:39;;;;;;;25.63;16.05;;;3.70;65.40;;;;;;2083878;28;20033;-77
2020/12/10 04:21:40;;;;;;;25.60;15.38;;;3.70;65.40;;;;;;2084430;28;20455;-76
2020/12/10 04:22:40;;;;;;;24.52;15.98;;;3.70;65.40;;;;;;2082930;28;20426;-74
2020/12/10 04:23:41;;;;;;;22.02;14.98;;;3.70;65.40;;;;;;2075239;28;20621;-74
2020/12/10 04:24:42;;;;;;;23.17;15.65;;;3.70;65.40;;;;;;2075678;28;20464;-74
2020/12/10 04:25:42;;;;;;;25.42;15.93;;;3.70;65.40;;;;;;2083514;28;20504;-75
2020/12/10 04:26:43;;;;;;;22.70;15.75;;;3.70;65.40;;;;;;2084075;28;20036;-75
2020/12/10 04:27:43;;;;;;;21.65;14.38;;;3.60;65.40;;;;;;2083424;28;20485;-75
2020/12/10 04:28:44;;;;;;;24.38;15.65;;;3.70;65.40;;;;;;2083018;28;20041;-74
2020/12/10 04:29:44;;;;;;;21.52;14.63;;;3.70;65.40;;;;;;2084301;28;20029;-75
2020/12/10 04:30:46;;;;;;;24.98;15.02;;;3.70;65.40;;;;;;2078664;28;20029;-75
2020/12/10 04:31:46;;;;;;;23.60;15.00;;;3.70;65.40;;;;;;2078894;28;20037;-75
2020/12/10 04:32:47;;;;;;;24.05;15.00;;;3.70;65.40;;;;;;2083380;28;20104;-75
2020/12/10 04:33:48;;;;;;;22.77;15.48;;;3.70;65.40;;;;;;2083176;28;20032;-75
2020/12/10 04:34:48;;;;;;;25.55;15.30;;;3.70;65.40;;;;;;2075941;28;20076;-76
2020/12/10 04:35:49;;;;;;;19.23;12.93;;;3.60;65.30;;;;;;2078434;28;20034;-76
2020/12/10 04:36:50;;;;;;;22.90;15.50;;;3.60;65.40;;;;;;2085501;28;20051;-76
2020/12/10 04:37:50;;;;;;;23.05;14.38;;;3.60;65.30;;;;;;2086344;28;20600;-77
2020/12/10 04:38:51;;;;;;;22.23;14.05;;;3.60;65.40;;;;;;2086113;28;20375;-77
2020/12/10 04:39:51;;;;;;;24.27;15.20;;;3.60;65.40;;;;;;2077843;28;20482;-76
2020/12/10 04:40:52;;;;;;;23.80;15.35;;;3.60;65.40;;;;;;2077782;28;20089;-77
2020/12/10 04:41:53;;;;;;;24.25;15.57;;;3.60;65.40;;;;;;2085654;28;20025;-78
2020/12/10 04:42:54;;;;;;;21.38;14.50;;;3.60;65.40;;;;;;2076880;28;20109;-78
2020/12/10 04:43:55;;;;;;;24.85;15.98;;;3.60;65.40;;;;;;2076710;28;20036;-77
2020/12/10 04:44:56;;;;;;;22.95;15.85;;;3.60;65.40;;;;;;2084846;28;20532;-77
2020/12/10 04:45:59;;;;;;;21.77;14.68;;;3.60;65.40;;;;;;2084274;28;20026;-76
2020/12/10 04:47:00;;;;;;;24.70;15.73;;;3.60;65.50;;;;;;2082678;28;20033;-76
2020/12/10 04:48:02;;;;;;;24.75;16.23;;;3.60;65.50;;;;;;2070387;28;20064;-76
2020/12/10 04:49:02;;;;;;;22.73;14.75;;;3.60;65.50;;;;;;2067829;28;20091;-76
2020/12/10 04:50:14;;;;;;;25.00;14.55;;;3.60;65.40;;;;;;2072522;28;20486;-74
2020/12/10 04:51:15;;;;;;;25.70;16.65;;;3.60;65.50;;;;;;2076634;28;20041;-74
2020/12/10 04:52:16;;;;;;;22.88;15.00;;;3.60;65.50;;;;;;2082998;28;20044;-76
2020/12/10 04:53:17;;;;;;;20.80;14.52;;;3.60;65.50;;;;;;2082997;28;20457;-76
2020/12/10 04:54:18;;;;;;;23.85;16.20;;;3.60;65.50;;;;;;2083746;28;20060;-74
2020/12/10 04:55:20;;;;;;;23.40;15.13;;;3.60;65.50;;;;;;2083796;28;20357;-76
2020/12/10 04:56:20;;;;;;;22.95;15.00;;;3.60;65.60;;;;;;2083271;28;20033;-77
2020/12/10 04:57:22;;;;;;;22.38;14.50;;;3.60;65.50;;;;;;2083610;28;20437;-76
2020/12/10 04:58:22;;;;;;;20.27;14.15;;;3.60;65.50;;;;;;2075219;28;20317;-76
2020/12/10 04:59:23;;;;;;;23.77;15.90;;;3.60;65.60;;;;;;2074322;28;20092;-77
2020/12/10 05:00:24;;;;;;;22.77;14.80;;;3.60;65.60;;;;;;2083954;28;20105;-75
2020/12/10 05:01:24;;;;;;;24.38;15.07;;;3.60;65.60;;;;;;2082393;28;20044;-75
2020/12/10 05:02:25;;;;;;;22.52;14.30;;;3.60;65.60;;;;;;2073684;28;20037;-75
2020/12/10 05:03:25;;;;;;;22.23;15.70;;;3.60;66.20;;;;;;2067354;28;20022;-76
2020/12/10 05:04:26;;;;;;;22.52;13.85;;;3.60;65.60;;;;;;2076759;28;20036;-76
2020/12/10 05:05:31;;;;;;;23.80;14.85;;;3.60;65.60;;;;;;2083402;28;20018;-75
2020/12/10 05:06:32;;;;;;;25.33;15.18;;;3.60;65.60;;;;;;2084231;28;20044;-76
2020/12/10 05:07:39;;;;;;;23.42;14.63;;;3.60;65.60;;;;;;2084004;28;20029;-77
2020/12/10 05:08:40;;;;;;;22.02;14.68;;;3.60;65.70;;;;;;2066388;28;20026;-77
2020/12/10 05:09:56;;;;;;;23.50;14.27;;;3.60;65.60;;;;;;2059824;28;20073;-79
2020/12/10 05:10:57;;;;;;;21.30;14.57;;;3.60;65.80;;;;;;2082840;28;20080;-78
2020/12/10 05:11:58;;;;;;;22.45;14.35;;;3.60;65.60;;;;;;2084620;28;20349;-77
2020/12/10 05:13:06;;;;;;;24.00;15.07;;;3.60;65.50;;;;;;2078547;28;20081;-76
2020/12/10 05:14:07;;;;;;;20.73;13.82;;;3.60;65.60;;;;;;2084631;28;20018;-77